Time;durP1;ratioP1;P1;durP2;ratioP2;P2;SDS_P1;SDS_P2;PMS_P1;PMS_P2;Temp;Humidity;BMP_temperature;BMP_pressure;BME280_temperature;BME280_humidity;BME280_pressure;Samples;Min_cycle;Max_cycle;Signal;HPM_P1;HPM_P2
2023/10/06 00:01:29;;;;;;;15.73;8.75;;;13.00;99.90;;;;;;4826253;29;20046;-77
2023/10/06 00:03:58;;;;;;;19.45;9.88;;;13.00;99.90;;;;;;4815800;29;20453;-77
2023/10/06 00:06:27;;;;;;;13.02;8.68;;;13.00;99.90;;;;;;4826522;29;20133;-77
2023/10/06 00:08:54;;;;;;;14.15;10.32;;;13.00;99.90;;;;;;4841595;29;20057;-77
2023/10/06 00:11:31;;;;;;;19.67;10.18;;;12.90;99.90;;;;;;4840640;29;20069;-77
2023/10/06 00:14:19;;;;;;;15.20;10.85;;;12.90;99.90;;;;;;4826240;29;20441;-77
2023/10/06 00:16:45;;;;;;;14.65;10.63;;;12.90;99.90;;;;;;4825677;29;20057;-77
2023/10/06 00:19:26;;;;;;;17.23;10.73;;;12.90;99.90;;;;;;4838998;29;20124;-77
2023/10/06 00:22:08;;;;;;;14.60;10.10;;;12.90;99.90;;;;;;4828399;29;20144;-77
2023/10/06 00:24:36;;;;;;;13.70;11.23;;;12.90;99.90;;;;;;4818936;29;20064;-77
2023/10/06 00:27:03;;;;;;;15.30;11.55;;;12.90;99.90;;;;;;4822022;29;20042;-77
2023/10/06 00:29:29;;;;;;;15.75;10.27;;;12.90;99.90;;;;;;4829485;29;20389;-77
2023/10/06 00:32:01;;;;;;;15.23;11.00;;;12.90;99.90;;;;;;4816324;29;20501;-77
2023/10/06 00:34:30;;;;;;;15.37;11.37;;;12.90;99.90;;;;;;4823550;29;20046;-77
2023/10/06 00:36:57;;;;;;;15.60;11.32;;;12.90;99.90;;;;;;4833143;29;20045;-78
2023/10/06 00:39:23;;;;;;;18.30;12.68;;;12.90;99.90;;;;;;4826228;29;20578;-77
2023/10/06 00:42:04;;;;;;;16.60;11.02;;;12.90;99.90;;;;;;4811296;29;20361;-77
2023/10/06 00:44:30;;;;;;;15.13;10.98;;;12.90;99.90;;;;;;4811770;29;20061;-78
2023/10/06 00:46:58;;;;;;;16.10;11.57;;;12.90;99.90;;;;;;4845517;29;20049;-78
2023/10/06 00:49:27;;;;;;;16.33;12.68;;;12.90;99.90;;;;;;4820840;29;20078;-78
2023/10/06 00:51:54;;;;;;;18.15;12.32;;;13.00;99.90;;;;;;4815368;29;20056;-78
2023/10/06 00:54:20;;;;;;;18.08;12.00;;;13.00;99.90;;;;;;4815765;29;20513;-78
2023/10/06 00:56:46;;;;;;;18.17;11.38;;;13.00;99.90;;;;;;4816072;29;20049;-78
2023/10/06 00:59:12;;;;;;;17.52;12.25;;;13.00;99.90;;;;;;4825050;29;20038;-77
2023/10/06 01:01:39;;;;;;;15.60;11.32;;;13.00;99.90;;;;;;4834866;29;20045;-78
2023/10/06 01:04:08;;;;;;;19.35;13.73;;;13.00;99.90;;;;;;4828041;29;20094;-78
2023/10/06 01:06:36;;;;;;;17.70;11.68;;;13.00;99.90;;;;;;4832151;29;20493;-77
2023/10/06 01:09:15;;;;;;;15.65;11.52;;;13.00;99.90;;;;;;4830240;29;20655;-77
2023/10/06 01:11:41;;;;;;;15.30;11.73;;;13.00;99.90;;;;;;4825204;29;20421;-77
2023/10/06 01:14:07;;;;;;;17.08;12.68;;;13.10;99.90;;;;;;4833931;29;20054;-77
2023/10/06 01:16:36;;;;;;;17.05;12.85;;;13.10;99.90;;;;;;4833856;29;20061;-77
2023/10/06 01:19:48;;;;;;;23.15;13.35;;;13.10;99.90;;;;;;4825780;29;20049;-77
2023/10/06 01:21:53;;;;;;;18.33;12.52;;;13.10;99.90;;;;;;4818936;29;20050;-78
2023/10/06 01:24:25;;;;;;;17.20;12.32;;;13.10;99.90;;;;;;4833475;29;20105;-78
2023/10/06 01:26:59;;;;;;;13.27;11.20;;;13.10;99.90;;;;;;4826092;29;20042;-77
2023/10/06 01:29:29;;;;;;;16.60;11.35;;;13.10;99.90;;;;;;4825599;29;20387;-78
2023/10/06 01:31:55;;;;;;;16.40;13.05;;;13.10;99.90;;;;;;4817859;29;20042;-77
2023/10/06 01:34:21;;;;;;;19.63;13.57;;;13.10;99.90;;;;;;4825868;29;20042;-77
2023/10/06 01:36:52;;;;;;;17.45;12.00;;;13.10;99.90;;;;;;4832588;29;20060;-77
2023/10/06 01:39:25;;;;;;;17.70;12.65;;;13.10;99.90;;;;;;4830193;29;20420;-77
2023/10/06 01:41:51;;;;;;;13.70;11.27;;;13.10;99.90;;;;;;4791569;29;20049;-77
2023/10/06 01:44:17;;;;;;;16.35;12.50;;;13.10;99.90;;;;;;4807854;29;20042;-78
2023/10/06 01:46:53;;;;;;;17.10;12.35;;;13.10;99.90;;;;;;4808162;29;20129;-77
2023/10/06 01:49:22;;;;;;;21.13;13.10;;;13.10;99.90;;;;;;4826109;29;20069;-77
2023/10/06 01:51:51;;;;;;;20.50;13.85;;;13.10;99.90;;;;;;4824603;29;20053;-77
2023/10/06 01:54:19;;;;;;;17.13;12.48;;;13.10;99.90;;;;;;4846500;29;20053;-77
2023/10/06 01:56:46;;;;;;;15.35;11.70;;;13.00;99.90;;;;;;4831237;29;20056;-77
2023/10/06 01:59:14;;;;;;;17.40;11.63;;;13.00;99.90;;;;;;4818508;29;20038;-77
2023/10/06 02:01:41;;;;;;;15.98;12.95;;;13.00;99.90;;;;;;4828894;29;20053;-78
2023/10/06 02:04:10;;;;;;;21.30;13.68;;;13.00;99.90;;;;;;4835864;29;20042;-78
2023/10/06 02:06:35;;;;;;;18.98;14.07;;;13.00;99.90;;;;;;4818570;29;20073;-78
2023/10/06 02:09:05;;;;;;;17.83;13.05;;;13.10;99.90;;;;;;4817087;29;20429;-78
2023/10/06 02:11:31;;;;;;;18.73;13.20;;;13.00;99.90;;;;;;4830263;29;20053;-78
2023/10/06 02:13:57;;;;;;;21.10;13.80;;;13.10;99.90;;;;;;4834162;29;20049;-78
2023/10/06 02:16:26;;;;;;;18.42;13.32;;;13.10;99.90;;;;;;4836713;29;20100;-78
2023/10/06 02:18:55;;;;;;;18.52;14.30;;;13.10;99.90;;;;;;4815202;29;20049;-78
2023/10/06 02:21:24;;;;;;;18.63;13.25;;;13.10;99.90;;;;;;4818962;29;20067;-78
2023/10/06 02:23:53;;;;;;;18.33;13.52;;;13.10;99.90;;;;;;4829534;29;20041;-78
2023/10/06 02:26:18;;;;;;;19.85;13.75;;;13.00;99.90;;;;;;4815071;29;20049;-78
2023/10/06 02:28:48;;;;;;;17.67;13.02;;;13.00;99.90;;;;;;4814975;29;20037;-78
2023/10/06 02:31:21;;;;;;;19.60;13.88;;;13.00;99.90;;;;;;4814784;29;20045;-78
2023/10/06 02:33:51;;;;;;;;;;;13.00;99.90;;;;;;4830737;29;20078;-78
2023/10/06 02:36:21;;;;;;;17.40;14.23;;;13.00;99.90;;;;;;4829238;29;19959;-78
2023/10/06 02:38:51;;;;;;;17.90;12.95;;;13.00;99.90;;;;;;4821138;29;20068;-78
2023/10/06 02:41:18;;;;;;;18.23;12.32;;;13.00;99.90;;;;;;4834613;29;20054;-78
2023/10/06 02:43:49;;;;;;;22.80;13.48;;;13.00;99.90;;;;;;4816347;29;20550;-78
2023/10/06 02:46:20;;;;;;;22.88;13.73;;;13.00;99.90;;;;;;4829514;29;20085;-78
2023/10/06 02:48:50;;;;;;;24.13;14.57;;;13.00;99.90;;;;;;4812768;29;20383;-78
2023/10/06 02:51:46;;;;;;;19.98;13.50;;;13.00;99.90;;;;;;4814713;29;20053;-78
2023/10/06 02:56:44;;;;;;;18.75;12.55;;;13.00;99.90;;;;;;4830075;29;20056;-79
2023/10/06 02:59:22;;;;;;;16.55;12.38;;;13.00;99.90;;;;;;4804795;29;20034;-79
2023/10/06 03:01:52;;;;;;;20.45;12.82;;;13.00;99.90;;;;;;4826857;29;20053;-79
2023/10/06 03:04:22;;;;;;;17.63;13.20;;;13.00;99.90;;;;;;4827055;29;20128;-79
2023/10/06 03:06:57;;;;;;;21.73;12.45;;;13.00;99.90;;;;;;4833225;29;20050;-79
2023/10/06 03:09:29;;;;;;;20.05;12.65;;;13.00;99.90;;;;;;4806975;29;20058;-79
2023/10/06 03:11:59;;;;;;;19.23;12.70;;;13.00;99.90;;;;;;4820132;29;20137;-79
2023/10/06 03:14:37;;;;;;;19.67;12.60;;;13.00;99.90;;;;;;4843889;29;20049;-79
2023/10/06 03:17:06;;;;;;;19.55;12.63;;;12.90;99.90;;;;;;4838751;29;20517;-79
2023/10/06 03:19:33;;;;;;;19.65;13.07;;;12.90;99.90;;;;;;4804990;29;20049;-79
2023/10/06 03:22:02;;;;;;;16.60;12.18;;;12.90;99.90;;;;;;4827352;29;20046;-79
2023/10/06 03:24:34;;;;;;;21.90;12.25;;;12.90;99.90;;;;;;4836842;29;20038;-79
2023/10/06 03:27:09;;;;;;;20.05;12.25;;;12.80;99.90;;;;;;4825011;29;20056;-79
2023/10/06 03:29:51;;;;;;;22.63;12.25;;;12.80;99.90;;;;;;4829021;29;20096;-79
2023/10/06 03:32:27;;;;;;;21.83;12.63;;;12.70;99.90;;;;;;4827374;29;20383;-79
2023/10/06 03:34:55;;;;;;;17.38;12.32;;;12.70;99.90;;;;;;4826099;29;20049;-79
2023/10/06 03:37:34;;;;;;;18.52;12.50;;;12.70;99.90;;;;;;4824934;29;20497;-79
2023/10/06 03:40:11;;;;;;;15.77;11.10;;;12.60;99.90;;;;;;4820693;29;20034;-79
2023/10/06 03:42:37;;;;;;;20.52;12.90;;;12.60;99.90;;;;;;4826010;29;20088;-79
2023/10/06 03:45:23;;;;;;;17.80;11.88;;;12.60;99.90;;;;;;4826115;29;20057;-79
2023/10/06 03:47:49;;;;;;;14.95;11.88;;;12.60;99.90;;;;;;4814216;29;20049;-79
2023/10/06 03:50:17;;;;;;;21.25;11.20;;;12.60;99.90;;;;;;4811760;29;20042;-78
2023/10/06 03:52:43;;;;;;;15.25;9.77;;;12.50;99.90;;;;;;4810698;29;20113;-79
2023/10/06 03:55:12;;;;;;;18.02;11.77;;;12.60;99.90;;;;;;4825788;29;20569;-79
2023/10/06 03:57:37;;;;;;;19.75;11.55;;;12.50;99.90;;;;;;4825443;29;20052;-79
2023/10/06 04:00:05;;;;;;;20.33;10.85;;;12.60;99.90;;;;;;4817887;29;20042;-79
2023/10/06 04:02:38;;;;;;;18.50;11.52;;;12.60;99.90;;;;;;4824991;29;20129;-79
2023/10/06 04:05:06;;;;;;;17.67;11.27;;;12.60;99.90;;;;;;4825616;29;20046;-80
2023/10/06 04:07:32;;;;;;;14.80;9.85;;;12.60;99.90;;;;;;4825264;29;20041;-79
2023/10/06 04:09:57;;;;;;;18.60;11.15;;;12.50;99.90;;;;;;4833617;29;20125;-79
2023/10/06 04:12:23;;;;;;;16.90;10.48;;;12.50;99.90;;;;;;4825697;29;20464;-79
2023/10/06 04:14:49;;;;;;;21.55;10.85;;;12.60;99.90;;;;;;4825510;29;20045;-79
2023/10/06 04:17:16;;;;;;;17.10;11.07;;;12.60;99.90;;;;;;4825484;29;20050;-79
2023/10/06 04:19:42;;;;;;;18.50;10.30;;;12.60;99.90;;;;;;4826217;29;20382;-78
2023/10/06 04:22:08;;;;;;;21.92;10.63;;;12.50;99.90;;;;;;4840730;29;20052;-80
2023/10/06 04:24:34;;;;;;;14.63;9.75;;;12.50;99.90;;;;;;4825938;29;20049;-79
2023/10/06 04:27:00;;;;;;;17.98;10.43;;;12.60;99.90;;;;;;4816065;29;20414;-79
2023/10/06 04:29:26;;;;;;;16.40;10.48;;;12.60;99.90;;;;;;4825912;29;20042;-79
2023/10/06 04:31:52;;;;;;;18.55;9.85;;;12.60;99.90;;;;;;4800614;29;20101;-79
2023/10/06 04:34:21;;;;;;;16.02;10.20;;;12.60;99.90;;;;;;4825664;29;20081;-79
2023/10/06 04:36:48;;;;;;;16.08;9.98;;;12.60;99.90;;;;;;4824046;29;20054;-79
2023/10/06 04:39:16;;;;;;;16.33;11.07;;;12.60;99.90;;;;;;4829593;29;20042;-80
2023/10/06 04:41:42;;;;;;;15.50;10.30;;;12.60;99.90;;;;;;4828026;29;20054;-80
2023/10/06 04:44:08;;;;;;;19.15;10.35;;;12.60;99.90;;;;;;4836422;29;20052;-79
2023/10/06 04:46:35;;;;;;;20.20;11.43;;;12.60;99.90;;;;;;4842044;29;20042;-79
2023/10/06 04:49:01;;;;;;;16.40;10.82;;;12.60;99.90;;;;;;4817311;29;20060;-79
2023/10/06 04:51:29;;;;;;;18.55;10.85;;;12.60;99.90;;;;;;4833274;29;20077;-79
2023/10/06 04:53:55;;;;;;;15.77;11.07;;;12.60;99.90;;;;;;4810900;29;20050;-79
2023/10/06 04:56:20;;;;;;;17.13;11.30;;;12.60;99.90;;;;;;4825884;29;20436;-79
2023/10/06 04:58:46;;;;;;;18.70;12.05;;;12.50;99.90;;;;;;4810676;29;20038;-79
2023/10/06 05:01:12;;;;;;;17.67;11.75;;;12.60;99.90;;;;;;4814061;29;20081;-79
2023/10/06 05:03:42;;;;;;;19.88;12.18;;;12.50;99.90;;;;;;4809780;29;20048;-79
2023/10/06 05:06:20;;;;;;;21.55;12.38;;;12.50;99.90;;;;;;4824025;29;20041;-79
2023/10/06 05:08:49;;;;;;;21.80;12.52;;;12.60;99.90;;;;;;4821109;29;20057;-79
2023/10/06 05:11:16;;;;;;;24.35;12.55;;;12.60;99.90;;;;;;4828559;29;20136;-79
2023/10/06 05:13:43;;;;;;;16.95;12.50;;;12.60;99.90;;;;;;4806448;29;20046;-79
2023/10/06 05:16:11;;;;;;;28.38;13.00;;;12.70;99.90;;;;;;4820646;29;20050;-79
2023/10/06 05:18:38;;;;;;;20.27;13.27;;;12.70;99.90;;;;;;4810599;29;20046;-80
2023/10/06 05:21:06;;;;;;;18.42;12.05;;;12.70;99.90;;;;;;4826945;29;20049;-79
2023/10/06 05:23:34;;;;;;;18.23;12.27;;;12.70;99.90;;;;;;4832445;29;20046;-79
2023/10/06 05:26:04;;;;;;;18.02;11.27;;;12.70;99.90;;;;;;4821499;29;20042;-79
2023/10/06 05:28:31;;;;;;;22.02;14.10;;;12.80;99.90;;;;;;4820681;29;20429;-79
2023/10/06 05:30:57;;;;;;;21.45;12.30;;;12.80;99.90;;;;;;4816780;29;20088;-79
2023/10/06 05:33:23;;;;;;;20.77;12.30;;;12.80;99.90;;;;;;4817016;29;20481;-79
2023/10/06 05:35:51;;;;;;;16.60;11.93;;;12.80;99.90;;;;;;4815328;29;20041;-79
2023/10/06 05:38:17;;;;;;;17.00;12.40;;;12.80;99.90;;;;;;4823441;29;20060;-79
2023/10/06 05:40:44;;;;;;;19.58;12.07;;;12.80;99.90;;;;;;4838351;29;20053;-78
2023/10/06 05:43:15;;;;;;;18.88;12.52;;;12.90;99.90;;;;;;4824032;29;20563;-79
2023/10/06 05:45:41;;;;;;;21.48;13.80;;;12.90;99.90;;;;;;4829896;29;20101;-79
2023/10/06 05:48:11;;;;;;;22.13;13.35;;;12.90;99.90;;;;;;4838536;29;20124;-79
2023/10/06 05:50:37;;;;;;;19.80;13.02;;;12.90;99.90;;;;;;4829309;29;20049;-79
2023/10/06 05:53:07;;;;;;;21.30;13.43;;;12.90;99.90;;;;;;4832223;29;20050;-78
2023/10/06 05:55:37;;;;;;;22.52;14.43;;;13.00;99.90;;;;;;4818570;29;20394;-80
2023/10/06 05:58:16;;;;;;;21.33;14.05;;;13.00;99.90;;;;;;4819698;29;20046;-80
2023/10/06 06:00:55;;;;;;;24.63;14.02;;;13.00;99.90;;;;;;4826221;29;20121;-80
2023/10/06 06:03:23;;;;;;;24.60;14.05;;;13.00;99.90;;;;;;4831671;29;20622;-77
2023/10/06 06:05:50;;;;;;;22.15;13.65;;;13.10;99.90;;;;;;4825648;29;20505;-79
2023/10/06 06:08:15;;;;;;;18.15;12.45;;;13.10;99.90;;;;;;4833382;29;20053;-79
2023/10/06 06:10:41;;;;;;;18.70;12.70;;;13.10;99.90;;;;;;4826204;29;20054;-79
2023/10/06 06:13:07;;;;;;;18.13;11.77;;;13.20;99.90;;;;;;4827569;29;20417;-79
2023/10/06 06:15:35;;;;;;;20.45;11.93;;;13.20;99.90;;;;;;4812096;29;20052;-79
2023/10/06 06:18:01;;;;;;;16.33;12.80;;;13.30;99.90;;;;;;4824325;29;20505;-78
2023/10/06 06:20:30;;;;;;;22.10;12.43;;;13.30;99.90;;;;;;4824431;29;20050;-78
2023/10/06 06:22:59;;;;;;;17.40;12.52;;;13.40;99.90;;;;;;4828960;29;20050;-78
2023/10/06 06:25:26;;;;;;;17.33;12.00;;;13.40;99.90;;;;;;4830521;29;20046;-80
2023/10/06 06:27:54;;;;;;;15.45;11.38;;;13.40;99.90;;;;;;4827655;29;20069;-79
2023/10/06 06:30:24;;;;;;;17.23;11.50;;;13.50;99.90;;;;;;4818605;29;20441;-79
2023/10/06 06:32:51;;;;;;;18.38;11.63;;;13.60;99.90;;;;;;4839435;29;20501;-79
2023/10/06 06:35:19;;;;;;;16.90;10.70;;;13.60;99.90;;;;;;4839326;29;20052;-79
2023/10/06 06:37:47;;;;;;;20.27;10.93;;;13.70;99.90;;;;;;4838354;29;20076;-79
2023/10/06 06:40:13;;;;;;;15.82;9.70;;;13.70;99.90;;;;;;4845226;29;20045;-79
2023/10/06 06:42:40;;;;;;;22.65;11.73;;;13.70;99.90;;;;;;4827085;29;20054;-79
2023/10/06 06:45:06;;;;;;;16.35;10.10;;;13.80;99.90;;;;;;4819255;29;20133;-79
2023/10/06 06:47:32;;;;;;;15.93;10.57;;;13.80;99.90;;;;;;4827456;29;20504;-79
2023/10/06 06:50:00;;;;;;;17.58;10.38;;;13.80;99.90;;;;;;4812035;29;20045;-79
2023/10/06 06:52:26;;;;;;;17.73;11.13;;;13.90;99.90;;;;;;4826803;29;20421;-79
2023/10/06 06:54:51;;;;;;;17.08;10.35;;;13.80;99.90;;;;;;4829937;29;20149;-79
2023/10/06 06:57:17;;;;;;;16.52;10.68;;;13.90;99.90;;;;;;4826899;29;20535;-79
2023/10/06 06:59:44;;;;;;;19.17;11.35;;;13.90;99.90;;;;;;4826486;29;20387;-79
2023/10/06 07:02:10;;;;;;;19.33;11.90;;;13.90;99.90;;;;;;4825976;29;20141;-79
2023/10/06 07:04:35;;;;;;;22.88;12.73;;;13.90;99.90;;;;;;4837005;29;20042;-81
2023/10/06 07:07:01;;;;;;;22.73;12.68;;;13.90;99.90;;;;;;4840182;29;20046;-80
2023/10/06 07:09:27;;;;;;;21.10;11.57;;;13.90;99.90;;;;;;4820825;29;20042;-80
2023/10/06 07:11:54;;;;;;;18.80;11.77;;;14.00;99.90;;;;;;4845616;29;20056;-80
2023/10/06 07:14:21;;;;;;;19.92;11.63;;;13.90;99.90;;;;;;4844844;29;20073;-80
2023/10/06 07:16:47;;;;;;;23.38;13.13;;;13.80;99.90;;;;;;4826669;29;20528;-80
2023/10/06 07:19:16;;;;;;;20.27;12.82;;;13.80;99.90;;;;;;4826777;29;20046;-80
2023/10/06 07:21:41;;;;;;;19.60;13.85;;;13.80;99.90;;;;;;4813242;29;20466;-81
2023/10/06 07:24:10;;;;;;;21.05;13.25;;;13.70;99.90;;;;;;4834865;29;20073;-80
2023/10/06 07:26:36;;;;;;;18.13;12.88;;;13.80;99.90;;;;;;4843058;29;20093;-79
2023/10/06 07:29:05;;;;;;;23.08;12.07;;;13.70;99.90;;;;;;4810745;29;20124;-78
2023/10/06 07:31:31;;;;;;;18.90;13.43;;;13.80;99.90;;;;;;4833951;29;20156;-80
2023/10/06 07:34:03;;;;;;;17.88;14.05;;;13.80;99.90;;;;;;4829367;29;20117;-79
2023/10/06 07:36:29;;;;;;;21.13;13.00;;;13.80;99.90;;;;;;4828415;29;20050;-78
2023/10/06 07:38:57;;;;;;;20.42;11.98;;;13.90;99.90;;;;;;4824809;29;20053;-79
2023/10/06 07:41:24;;;;;;;19.77;13.32;;;14.00;99.90;;;;;;4826968;29;20320;-79
2023/10/06 07:43:50;;;;;;;19.73;13.00;;;14.00;99.90;;;;;;4817031;29;20038;-79
2023/10/06 07:46:16;;;;;;;19.08;13.45;;;14.00;99.90;;;;;;4825806;29;20462;-79
2023/10/06 07:48:46;;;;;;;19.65;14.02;;;14.10;99.90;;;;;;4818231;29;20046;-79
2023/10/06 07:51:16;;;;;;;18.15;11.20;;;14.20;99.90;;;;;;4827347;29;20101;-79
2023/10/06 07:53:43;;;;;;;18.40;10.98;;;14.20;99.90;;;;;;4826701;29;20462;-79
2023/10/06 07:56:09;;;;;;;21.85;11.98;;;14.30;99.90;;;;;;4822473;29;20050;-79
2023/10/06 07:58:41;;;;;;;19.00;12.50;;;14.40;99.90;;;;;;4831371;29;20420;-79
2023/10/06 08:01:08;;;;;;;17.35;12.30;;;14.30;99.90;;;;;;4825046;29;20076;-79
2023/10/06 08:03:41;;;;;;;19.25;11.93;;;14.30;99.90;;;;;;4821732;29;20038;-79
2023/10/06 08:06:08;;;;;;;18.77;11.77;;;14.30;99.90;;;;;;4817529;29;20077;-79
2023/10/06 08:08:35;;;;;;;21.45;11.95;;;14.40;99.90;;;;;;4842704;29;20045;-79
2023/10/06 08:11:02;;;;;;;17.45;11.60;;;14.40;99.90;;;;;;4844216;29;20053;-78
2023/10/06 08:13:30;;;;;;;17.65;10.52;;;14.40;99.90;;;;;;4834057;29;20044;-78
2023/10/06 08:15:59;;;;;;;14.18;10.68;;;14.40;99.90;;;;;;4831220;29;20050;-78
2023/10/06 08:18:29;;;;;;;19.40;10.90;;;14.50;99.90;;;;;;4833192;29;20057;-78
2023/10/06 08:20:56;;;;;;;20.33;11.57;;;14.50;99.90;;;;;;4828373;29;20512;-78
2023/10/06 08:23:21;;;;;;;19.42;11.55;;;14.50;99.90;;;;;;4833163;29;20041;-78
2023/10/06 08:25:47;;;;;;;22.63;12.55;;;14.60;99.90;;;;;;4834842;29;20086;-78
2023/10/06 08:28:12;;;;;;;21.75;13.27;;;14.70;99.90;;;;;;4834617;29;20041;-78
2023/10/06 08:30:38;;;;;;;19.67;12.65;;;14.90;99.90;;;;;;4832261;29;20044;-77
2023/10/06 08:33:08;;;;;;;21.17;12.93;;;14.90;99.90;;;;;;4812898;29;20034;-78
2023/10/06 08:35:34;;;;;;;20.17;12.20;;;15.00;99.90;;;;;;4831631;29;20077;-78
2023/10/06 08:38:00;;;;;;;18.95;11.35;;;15.00;99.90;;;;;;4832106;29;20132;-79
2023/10/06 08:40:27;;;;;;;20.13;12.98;;;15.00;99.90;;;;;;4832970;29;20574;-78
2023/10/06 08:42:56;;;;;;;17.90;12.45;;;15.10;99.90;;;;;;4834882;29;20136;-78
2023/10/06 08:45:24;;;;;;;20.65;13.13;;;15.00;99.90;;;;;;4816088;29;20038;-78
2023/10/06 08:47:55;;;;;;;18.60;11.35;;;15.10;99.90;;;;;;4815373;29;20052;-79
2023/10/06 08:50:22;;;;;;;19.40;12.73;;;15.10;99.90;;;;;;4816264;29;20050;-79
2023/10/06 08:52:52;;;;;;;21.13;12.05;;;15.10;99.90;;;;;;4832327;29;20054;-78
2023/10/06 08:55:18;;;;;;;20.23;11.80;;;15.10;99.90;;;;;;4850066;23;20043;-83
2023/10/06 08:57:48;;;;;;;18.23;12.88;;;15.10;99.90;;;;;;4828458;29;20105;-84
2023/10/06 09:00:24;;;;;;;16.35;11.95;;;15.10;99.90;;;;;;4822240;29;20053;-82
2023/10/06 09:02:51;;;;;;;19.48;11.40;;;15.10;99.90;;;;;;4817106;29;20124;-83
2023/10/06 09:05:18;;;;;;;19.73;12.00;;;15.20;99.90;;;;;;4843446;29;20105;-82
2023/10/06 09:08:05;;;;;;;17.52;11.25;;;15.10;99.90;;;;;;4831307;29;20051;-82
2023/10/06 09:10:32;;;;;;;17.10;11.63;;;15.20;99.90;;;;;;4810317;29;20446;-82
2023/10/06 09:13:11;;;;;;;15.98;10.90;;;15.20;99.90;;;;;;4809980;29;20042;-82
2023/10/06 09:15:40;;;;;;;16.75;11.95;;;15.20;99.90;;;;;;4794829;29;20082;-81
2023/10/06 09:18:19;;;;;;;18.25;11.88;;;15.30;99.90;;;;;;4809896;29;20050;-81
2023/10/06 09:20:47;;;;;;;23.42;13.27;;;15.30;99.90;;;;;;4826133;29;20486;-81
2023/10/06 09:23:45;;;;;;;20.52;13.70;;;15.40;99.90;;;;;;4826260;29;20042;-82
2023/10/06 09:26:26;;;;;;;20.88;11.65;;;15.50;99.90;;;;;;4841274;29;20048;-82
2023/10/06 09:28:55;;;;;;;18.88;12.13;;;15.50;99.90;;;;;;4812182;29;20045;-82
2023/10/06 09:31:44;;;;;;;18.23;12.10;;;15.60;99.90;;;;;;4824659;29;20045;-84
2023/10/06 09:34:11;;;;;;;21.27;12.43;;;15.60;99.90;;;;;;4821703;29;20490;-82
2023/10/06 09:36:42;;;;;;;19.65;11.35;;;15.70;99.90;;;;;;4809875;29;20049;-80
2023/10/06 09:39:14;;;;;;;20.27;11.70;;;15.80;99.90;;;;;;4834830;29;20374;-78
2023/10/06 09:41:40;;;;;;;16.08;11.52;;;15.90;99.90;;;;;;4822488;29;20042;-80
2023/10/06 09:44:11;;;;;;;17.15;10.82;;;16.00;99.90;;;;;;4832619;29;20099;-81
2023/10/06 09:46:41;;;;;;;14.93;9.88;;;16.10;99.90;;;;;;4830537;29;20053;-83
2023/10/06 09:49:11;;;;;;;16.95;9.75;;;16.20;99.90;;;;;;4846304;29;20057;-80
2023/10/06 09:51:41;;;;;;;13.93;8.40;;;16.20;99.90;;;;;;4840015;29;20053;-81
2023/10/06 09:54:10;;;;;;;16.17;9.93;;;16.20;99.90;;;;;;4801716;29;20076;-79
2023/10/06 09:56:40;;;;;;;20.02;9.60;;;16.30;99.90;;;;;;4814954;29;20405;-80
2023/10/06 09:59:07;;;;;;;14.57;8.68;;;16.40;99.90;;;;;;4831183;29;20097;-80
2023/10/06 10:01:36;;;;;;;17.23;8.82;;;16.60;99.90;;;;;;4817177;29;20042;-80
2023/10/06 10:04:02;;;;;;;15.15;9.07;;;16.70;99.90;;;;;;4807416;29;20088;-79
2023/10/06 10:06:28;;;;;;;16.63;8.55;;;16.80;99.90;;;;;;4833504;29;20502;-80
2023/10/06 10:08:54;;;;;;;13.02;8.52;;;16.90;99.90;;;;;;4830809;29;20053;-80
2023/10/06 10:11:33;;;;;;;18.17;9.27;;;17.00;99.90;;;;;;4810943;29;20041;-81
2023/10/06 10:14:18;;;;;;;14.50;9.18;;;17.10;99.90;;;;;;4825693;29;20064;-80
2023/10/06 10:16:56;;;;;;;16.27;8.35;;;17.30;99.90;;;;;;4814510;29;20109;-79
2023/10/06 10:19:25;;;;;;;13.80;7.75;;;17.40;99.90;;;;;;4843544;29;20136;-80
2023/10/06 10:21:54;;;;;;;13.57;8.10;;;17.50;99.90;;;;;;4830545;29;20037;-80
2023/10/06 10:24:21;;;;;;;12.27;7.47;;;17.50;99.90;;;;;;4831836;29;20033;-82
2023/10/06 10:26:47;;;;;;;15.25;8.00;;;17.60;99.90;;;;;;4811319;29;20181;-81
2023/10/06 10:29:13;;;;;;;15.40;8.20;;;17.60;99.90;;;;;;4834060;29;20042;-81
2023/10/06 10:31:39;;;;;;;10.70;7.88;;;17.70;99.90;;;;;;4834470;29;20496;-82
2023/10/06 10:34:08;;;;;;;13.57;6.97;;;17.90;99.90;;;;;;4828133;29;20477;-83
2023/10/06 10:36:33;;;;;;;14.82;6.55;;;18.20;99.90;;;;;;4826674;29;20046;-82
2023/10/06 10:39:14;;;;;;;12.57;6.68;;;18.50;99.90;;;;;;4828568;29;20038;-82
2023/10/06 10:41:40;;;;;;;12.40;6.68;;;18.60;99.90;;;;;;4811494;29;20038;-82
2023/10/06 10:44:11;;;;;;;11.82;6.57;;;18.60;99.90;;;;;;4819903;29;20049;-81
2023/10/06 10:46:52;;;;;;;13.07;7.05;;;18.60;99.90;;;;;;4833677;29;20041;-82
2023/10/06 10:49:22;;;;;;;13.68;6.55;;;18.50;99.90;;;;;;4840990;29;20460;-82
2023/10/06 10:51:50;;;;;;;12.10;6.55;;;18.30;99.90;;;;;;4811892;29;20041;-80
2023/10/06 10:54:21;;;;;;;13.65;7.00;;;18.20;99.90;;;;;;4825526;29;20057;-81
2023/10/06 10:56:51;;;;;;;13.23;6.93;;;18.10;99.90;;;;;;4814881;29;20050;-81
2023/10/06 10:59:17;;;;;;;17.42;7.57;;;18.00;99.90;;;;;;4818596;29;20054;-81
2023/10/06 11:01:44;;;;;;;14.23;6.57;;;17.80;99.90;;;;;;4816652;29;20205;-82
2023/10/06 11:04:09;;;;;;;14.38;7.53;;;17.80;99.90;;;;;;4833262;29;20053;-81
2023/10/06 11:06:36;;;;;;;14.48;7.88;;;17.70;99.90;;;;;;4834560;29;20042;-82
2023/10/06 11:09:12;;;;;;;13.75;7.50;;;17.60;99.90;;;;;;4811716;29;20050;-81
2023/10/06 11:11:39;;;;;;;11.68;6.85;;;17.50;99.90;;;;;;4828668;29;20159;-81
2023/10/06 11:14:05;;;;;;;13.35;6.97;;;17.40;99.90;;;;;;4813456;29;20046;-82
2023/10/06 11:16:32;;;;;;;17.23;7.60;;;17.30;99.90;;;;;;4825374;29;20517;-80
2023/10/06 11:19:03;;;;;;;12.50;7.45;;;17.30;99.90;;;;;;4833598;29;20509;-82
2023/10/06 11:21:30;;;;;;;14.63;6.75;;;17.30;99.90;;;;;;4825453;29;20124;-80
2023/10/06 11:23:58;;;;;;;11.05;6.90;;;17.30;99.90;;;;;;4827140;29;20062;-82
2023/10/06 11:26:33;;;;;;;13.13;7.60;;;17.30;99.90;;;;;;4826563;29;20064;-81
2023/10/06 11:29:00;;;;;;;14.63;6.78;;;17.40;99.90;;;;;;4826349;29;20527;-81
2023/10/06 11:31:27;;;;;;;15.30;7.35;;;17.70;99.90;;;;;;4827188;29;20124;-81
2023/10/06 11:33:54;;;;;;;12.32;6.65;;;18.10;99.90;;;;;;4836899;29;20105;-80
2023/10/06 11:36:20;;;;;;;15.05;7.07;;;18.50;99.90;;;;;;4810478;29;20073;-82
2023/10/06 11:38:47;;;;;;;13.95;7.85;;;18.60;99.90;;;;;;4819643;29;20042;-82
2023/10/06 11:41:22;;;;;;;15.13;6.70;;;18.70;99.90;;;;;;4824273;29;20397;-82
2023/10/06 11:43:58;;;;;;;14.55;7.25;;;18.70;99.90;;;;;;4825596;29;20045;-81
2023/10/06 11:46:24;;;;;;;14.63;7.07;;;18.60;99.90;;;;;;4810617;29;20106;-82
2023/10/06 11:48:52;;;;;;;11.40;6.95;;;18.50;99.90;;;;;;4826037;29;20045;-81
2023/10/06 11:51:17;;;;;;;12.90;6.30;;;18.40;99.90;;;;;;4824819;29;20112;-81
2023/10/06 11:53:44;;;;;;;13.73;7.30;;;18.30;99.90;;;;;;4824548;29;20060;-82
2023/10/06 11:56:13;;;;;;;10.23;6.75;;;18.30;99.90;;;;;;4839371;29;20396;-81
2023/10/06 11:58:40;;;;;;;11.90;6.80;;;18.30;99.90;;;;;;4828859;29;20151;-81
2023/10/06 12:01:25;;;;;;;13.65;6.53;;;18.40;99.90;;;;;;4824818;29;20484;-82
2023/10/06 12:03:51;;;;;;;10.77;5.93;;;18.50;99.90;;;;;;4810579;29;20065;-81
2023/10/06 12:06:16;;;;;;;13.98;6.80;;;18.70;99.90;;;;;;4820071;29;20084;-80
2023/10/06 12:08:52;;;;;;;13.15;6.45;;;18.90;99.90;;;;;;4813610;29;20129;-81
2023/10/06 12:11:21;;;;;;;15.48;7.28;;;19.00;99.90;;;;;;4825387;29;20393;-82
2023/10/06 12:13:46;;;;;;;12.20;6.07;;;19.00;99.90;;;;;;4826370;29;20045;-82
2023/10/06 12:16:13;;;;;;;13.00;6.28;;;19.10;99.90;;;;;;4832577;29;20102;-82
2023/10/06 12:18:39;;;;;;;15.15;5.95;;;19.30;99.90;;;;;;4834805;29;20045;-82
2023/10/06 12:21:06;;;;;;;10.50;5.85;;;19.70;99.90;;;;;;4835328;29;20490;-84
2023/10/06 12:23:32;;;;;;;12.48;5.40;;;19.90;99.90;;;;;;4832816;29;20042;-82
2023/10/06 12:25:58;;;;;;;10.70;5.10;;;20.30;99.90;;;;;;4837090;29;20045;-82
2023/10/06 12:28:25;;;;;;;13.70;4.90;;;20.70;99.90;;;;;;4843307;29;20571;-82
2023/10/06 12:30:52;;;;;;;13.43;4.97;;;21.00;99.90;;;;;;4834033;29;20524;-86
2023/10/06 12:33:17;;;;;;;9.98;4.72;;;21.20;99.90;;;;;;4824785;29;20046;-82
2023/10/06 12:35:43;;;;;;;11.35;5.05;;;21.50;99.90;;;;;;4839735;29;20040;-82
2023/10/06 12:38:09;;;;;;;13.25;5.35;;;21.70;99.90;;;;;;4809272;29;20183;-82
2023/10/06 12:40:35;;;;;;;11.40;5.55;;;22.20;99.90;;;;;;4834835;29;20126;-82
2023/10/06 12:43:01;;;;;;;13.15;5.22;;;22.40;99.90;;;;;;4828183;29;20488;-83